Time;durP1;ratioP1;P1;durP2;ratioP2;P2;SDS_P1;SDS_P2;PMS_P1;PMS_P2;Temp;Humidity;BMP_temperature;BMP_pressure;BME280_temperature;BME280_humidity;BME280_pressure;Samples;Min_cycle;Max_cycle;Signal;HPM_P1;HPM_P2
2022/07/10 00:00:31;;;;;;;4.78;2.30;;;14.70;99.90;;;;;;5092836;28;20195;-68
2022/07/10 00:02:58;;;;;;;7.70;3.53;;;14.60;99.90;;;;;;5092782;28;20230;-68
2022/07/10 00:05:24;;;;;;;7.05;2.30;;;14.60;99.90;;;;;;5092861;28;20756;-68
2022/07/10 00:07:51;;;;;;;23.42;8.90;;;14.60;99.90;;;;;;5092632;28;20181;-68
2022/07/10 00:10:18;;;;;;;9.18;2.97;;;14.60;99.90;;;;;;5093947;28;20189;-68
2022/07/10 00:12:45;;;;;;;3.65;2.10;;;14.60;99.90;;;;;;5092829;28;20177;-68
2022/07/10 00:15:11;;;;;;;5.72;2.40;;;14.60;99.90;;;;;;5094674;28;20538;-68
2022/07/10 00:17:39;;;;;;;10.15;3.85;;;14.60;99.90;;;;;;5093788;28;20208;-68
2022/07/10 00:20:06;;;;;;;4.97;2.60;;;14.60;99.90;;;;;;5096878;28;20288;-68
2022/07/10 00:22:34;;;;;;;4.13;3.00;;;14.60;99.90;;;;;;5096756;28;20181;-68
2022/07/10 00:25:04;;;;;;;3.67;2.13;;;14.60;99.90;;;;;;5097122;28;20185;-68
2022/07/10 00:27:30;;;;;;;3.97;2.30;;;14.60;99.90;;;;;;5098363;28;20210;-68
2022/07/10 00:29:56;;;;;;;9.40;4.93;;;14.60;99.90;;;;;;5098358;28;20189;-68
2022/07/10 00:32:22;;;;;;;4.75;2.50;;;14.60;99.90;;;;;;5098013;28;20184;-68
2022/07/10 00:34:48;;;;;;;5.72;2.45;;;14.50;99.90;;;;;;5098050;28;20263;-68
2022/07/10 00:37:14;;;;;;;3.05;2.22;;;14.50;99.90;;;;;;5097696;28;20247;-68
2022/07/10 00:39:39;;;;;;;4.03;2.50;;;14.50;99.90;;;;;;5097540;28;20203;-68
2022/07/10 00:42:11;;;;;;;2.88;2.13;;;14.50;99.90;;;;;;5097706;28;20609;-68
2022/07/10 00:44:37;;;;;;;4.85;2.20;;;14.40;99.90;;;;;;5098538;28;20536;-68
2022/07/10 00:47:09;;;;;;;2.95;2.35;;;14.40;99.90;;;;;;5097592;28;20196;-68
2022/07/10 00:49:36;;;;;;;8.02;2.80;;;14.40;99.90;;;;;;5096438;28;20197;-68
2022/07/10 00:52:10;;;;;;;5.20;2.53;;;14.30;99.90;;;;;;5097313;28;20269;-68
2022/07/10 00:54:37;;;;;;;5.05;2.38;;;14.40;99.90;;;;;;5097744;28;20210;-68
2022/07/10 00:57:05;;;;;;;5.40;2.17;;;14.30;99.90;;;;;;5097698;28;20177;-68
2022/07/10 00:59:31;;;;;;;4.95;2.50;;;14.30;99.90;;;;;;5096088;28;20605;-68
2022/07/10 01:01:57;;;;;;;4.70;2.25;;;14.30;99.90;;;;;;5096222;28;20203;-68
2022/07/10 01:04:24;;;;;;;6.75;2.28;;;14.30;99.90;;;;;;5096437;28;20642;-68
2022/07/10 01:06:50;;;;;;;3.00;2.35;;;14.30;99.90;;;;;;5095796;28;20205;-68
2022/07/10 01:09:16;;;;;;;7.25;2.53;;;14.40;99.90;;;;;;5095835;28;20204;-68
2022/07/10 01:11:42;;;;;;;7.47;2.60;;;14.40;99.90;;;;;;5096103;28;20173;-68
2022/07/10 01:14:08;;;;;;;3.22;2.60;;;14.40;99.90;;;;;;5097470;28;20217;-68
2022/07/10 01:16:34;;;;;;;7.65;2.75;;;14.30;99.90;;;;;;5095882;28;20654;-68
2022/07/10 01:19:00;;;;;;;6.53;2.92;;;14.40;99.90;;;;;;5095400;28;20221;-68
2022/07/10 01:21:27;;;;;;;4.22;2.53;;;14.30;99.90;;;;;;5097330;28;20173;-68
2022/07/10 01:23:54;;;;;;;6.25;2.38;;;14.30;99.90;;;;;;5096897;28;20173;-68
2022/07/10 01:26:21;;;;;;;8.45;2.60;;;14.30;99.90;;;;;;5095416;28;20201;-68
2022/07/10 01:28:51;;;;;;;5.90;2.40;;;14.20;99.90;;;;;;5095542;28;20212;-68
2022/07/10 01:31:18;;;;;;;6.95;2.33;;;14.20;99.90;;;;;;5094789;28;20637;-68
2022/07/10 01:33:46;;;;;;;8.20;2.58;;;14.10;99.90;;;;;;5095321;28;20169;-68
2022/07/10 01:36:12;;;;;;;5.85;2.40;;;14.20;99.90;;;;;;5096599;28;20172;-68
2022/07/10 01:38:39;;;;;;;9.05;2.75;;;14.10;99.90;;;;;;5096280;28;20199;-68
2022/07/10 01:41:04;;;;;;;5.13;2.25;;;14.10;99.90;;;;;;5096426;28;20223;-68
2022/07/10 01:43:30;;;;;;;3.17;2.03;;;14.20;99.90;;;;;;5096788;28;20165;-68
2022/07/10 01:45:56;;;;;;;6.30;2.65;;;14.20;99.90;;;;;;5095262;28;20224;-68
2022/07/10 01:48:21;;;;;;;9.00;2.58;;;14.20;99.90;;;;;;5094981;28;20280;-69
2022/07/10 01:50:47;;;;;;;4.53;2.42;;;14.20;99.90;;;;;;5094993;28;20269;-68
2022/07/10 01:53:13;;;;;;;8.30;2.40;;;14.10;99.90;;;;;;5096092;28;20177;-69
2022/07/10 01:55:39;;;;;;;4.60;2.65;;;14.10;99.90;;;;;;5096470;28;20207;-68
2022/07/10 01:58:05;;;;;;;6.43;2.45;;;14.10;99.90;;;;;;5095016;28;20209;-69
2022/07/10 02:00:30;;;;;;;5.82;2.65;;;14.00;99.90;;;;;;5096434;28;20180;-68
2022/07/10 02:05:40;;;;;;;9.25;2.63;;;14.00;99.90;;;;;;5096010;28;20195;-69
2022/07/10 02:08:06;;;;;;;3.72;2.08;;;14.00;99.90;;;;;;5094134;28;20176;-69
2022/07/10 02:10:32;;;;;;;8.85;2.63;;;14.00;99.90;;;;;;5094317;28;20553;-69
2022/07/10 02:12:58;;;;;;;5.75;2.70;;;14.00;99.90;;;;;;5095918;28;20181;-69
2022/07/10 02:15:24;;;;;;;6.82;2.70;;;14.00;99.90;;;;;;5095918;28;20169;-69
2022/07/10 02:17:50;;;;;;;5.05;2.58;;;14.00;99.90;;;;;;5095843;28;20208;-69
2022/07/10 02:20:16;;;;;;;7.63;2.70;;;13.90;99.90;;;;;;5094118;28;20666;-69
2022/07/10 02:22:42;;;;;;;5.63;2.25;;;13.90;99.90;;;;;;5095224;28;20176;-69
2022/07/10 02:25:08;;;;;;;5.45;2.38;;;13.90;99.90;;;;;;5094182;28;20260;-69
2022/07/10 02:27:34;;;;;;;4.40;2.13;;;13.90;99.90;;;;;;5095908;28;20181;-69
2022/07/10 02:29:59;;;;;;;4.30;2.38;;;13.90;99.90;;;;;;5093980;28;20564;-69
2022/07/10 02:32:25;;;;;;;7.10;2.40;;;13.90;99.90;;;;;;5095776;28;20177;-69
2022/07/10 02:34:52;;;;;;;3.83;2.58;;;13.90;99.90;;;;;;5095411;28;20165;-69
2022/07/10 02:37:17;;;;;;;7.53;2.60;;;13.90;99.90;;;;;;5094813;28;20173;-69
2022/07/10 02:39:43;;;;;;;8.07;2.70;;;13.90;99.90;;;;;;5093799;28;20199;-69
2022/07/10 02:42:09;;;;;;;4.03;2.40;;;13.90;99.90;;;;;;5094423;28;20226;-69
2022/07/10 02:44:34;;;;;;;8.98;2.70;;;13.90;99.90;;;;;;5095259;28;20177;-69
2022/07/10 02:47:00;;;;;;;4.45;2.90;;;13.90;99.90;;;;;;5094950;28;20209;-69
2022/07/10 02:49:26;;;;;;;8.55;3.20;;;13.90;99.90;;;;;;5094791;28;20208;-69
2022/07/10 02:51:52;;;;;;;7.38;2.53;;;13.80;99.90;;;;;;5095505;28;20177;-69
2022/07/10 02:54:18;;;;;;;6.50;2.85;;;13.90;99.90;;;;;;5095384;28;20534;-69
2022/07/10 02:56:44;;;;;;;5.60;3.03;;;13.80;99.90;;;;;;5094872;28;20169;-69
2022/07/10 02:59:09;;;;;;;5.88;2.72;;;13.80;99.90;;;;;;5094711;28;20338;-69
2022/07/10 03:01:35;;;;;;;8.43;2.97;;;13.80;99.90;;;;;;5094689;28;20173;-69
2022/07/10 03:04:01;;;;;;;7.00;2.50;;;13.80;99.90;;;;;;5096629;28;20235;-69
2022/07/10 03:06:27;;;;;;;6.55;2.60;;;13.80;99.90;;;;;;5095325;28;20197;-69
2022/07/10 03:08:53;;;;;;;6.70;2.80;;;13.80;99.90;;;;;;5094494;28;20263;-68
2022/07/10 03:11:18;;;;;;;6.40;2.65;;;13.80;99.90;;;;;;5094827;28;20268;-69
2022/07/10 03:13:44;;;;;;;6.22;2.75;;;13.80;99.90;;;;;;5094861;28;20218;-69
2022/07/10 03:16:10;;;;;;;5.88;2.40;;;13.80;99.90;;;;;;5093302;28;20177;-69
2022/07/10 03:18:36;;;;;;;6.15;2.72;;;13.80;99.90;;;;;;5094359;28;20220;-69
2022/07/10 03:21:02;;;;;;;5.72;2.60;;;13.80;99.90;;;;;;5094419;28;20173;-69
2022/07/10 03:23:27;;;;;;;6.75;2.50;;;13.80;99.90;;;;;;5092911;28;20226;-68
2022/07/10 03:25:53;;;;;;;5.18;2.33;;;13.70;99.90;;;;;;5094244;28;20197;-69
2022/07/10 03:28:19;;;;;;;8.18;2.80;;;13.80;99.90;;;;;;5094832;28;20618;-69
2022/07/10 03:30:44;;;;;;;7.75;2.55;;;13.70;99.90;;;;;;5092890;28;20173;-69
2022/07/10 03:33:10;;;;;;;5.47;2.90;;;13.70;99.90;;;;;;5092898;28;20169;-69
2022/07/10 03:35:36;;;;;;;7.57;2.70;;;13.70;99.90;;;;;;5092948;28;20184;-69
2022/07/10 03:38:02;;;;;;;6.40;2.38;;;13.70;99.90;;;;;;5093795;28;20252;-69
2022/07/10 03:40:28;;;;;;;7.50;2.88;;;13.70;99.90;;;;;;5092815;28;20177;-68
2022/07/10 03:42:53;;;;;;;8.27;2.80;;;13.70;99.90;;;;;;5094378;28;20180;-69
2022/07/10 03:45:19;;;;;;;6.32;3.13;;;13.70;99.90;;;;;;5092728;28;20235;-69
2022/07/10 03:47:45;;;;;;;5.10;2.50;;;13.70;99.90;;;;;;5093389;28;20185;-69
2022/07/10 03:50:11;;;;;;;6.50;2.70;;;13.70;99.90;;;;;;5095037;28;20193;-68
2022/07/10 03:52:37;;;;;;;6.88;2.75;;;13.70;99.90;;;;;;5094433;28;20180;-68
2022/07/10 03:55:03;;;;;;;4.70;2.53;;;13.70;99.90;;;;;;5094238;28;20169;-69
2022/07/10 04:00:13;;;;;;;5.22;2.70;;;13.60;99.90;;;;;;5093843;28;20226;-69
2022/07/10 04:02:42;;;;;;;6.53;2.80;;;13.60;99.90;;;;;;5093811;28;20222;-69
2022/07/10 04:05:09;;;;;;;5.05;2.80;;;13.60;99.90;;;;;;5093726;28;20182;-69
2022/07/10 04:07:36;;;;;;;7.00;3.00;;;13.70;99.90;;;;;;5093464;28;20216;-68
2022/07/10 04:10:03;;;;;;;7.68;3.08;;;13.60;99.90;;;;;;5093524;28;20196;-69
2022/07/10 04:12:29;;;;;;;5.53;2.92;;;13.70;99.90;;;;;;5092383;28;20649;-69
2022/07/10 04:14:56;;;;;;;4.65;2.60;;;13.70;99.90;;;;;;5092313;28;20176;-69
2022/07/10 04:17:22;;;;;;;7.50;2.72;;;13.60;99.90;;;;;;5093743;28;20313;-69
2022/07/10 04:19:47;;;;;;;5.20;2.65;;;13.60;99.90;;;;;;5092159;28;20229;-69
2022/07/10 04:22:13;;;;;;;7.18;2.80;;;13.70;99.90;;;;;;5093597;28;20161;-68
2022/07/10 04:24:39;;;;;;;3.95;2.50;;;13.70;99.90;;;;;;5093509;28;20172;-69
2022/07/10 04:27:06;;;;;;;7.82;2.47;;;13.70;99.90;;;;;;5093727;28;20196;-69
2022/07/10 04:29:32;;;;;;;4.10;2.40;;;13.70;99.90;;;;;;5093377;28;20185;-69
2022/07/10 04:31:58;;;;;;;6.55;2.83;;;13.70;99.90;;;;;;5092167;28;20174;-69
2022/07/10 04:34:24;;;;;;;5.45;2.50;;;13.80;99.90;;;;;;5093471;28;20252;-69
2022/07/10 04:36:50;;;;;;;6.10;2.45;;;13.80;99.90;;;;;;5093429;28;20204;-69
2022/07/10 04:39:16;;;;;;;7.82;2.70;;;13.80;99.90;;;;;;5092980;28;20227;-69
2022/07/10 04:41:41;;;;;;;5.35;2.47;;;13.80;99.90;;;;;;5093353;28;20169;-69
2022/07/10 04:44:07;;;;;;;8.60;2.47;;;13.80;99.90;;;;;;5093286;28;20551;-69
2022/07/10 04:46:33;;;;;;;10.02;3.08;;;13.80;99.90;;;;;;5093473;28;20204;-69
2022/07/10 04:48:59;;;;;;;4.10;2.47;;;13.80;99.90;;;;;;5093573;28;20220;-68
2022/07/10 04:51:25;;;;;;;6.82;2.60;;;13.80;99.90;;;;;;5093432;28;20165;-69
2022/07/10 04:53:51;;;;;;;7.90;2.80;;;13.80;99.90;;;;;;5093073;28;20165;-68
2022/07/10 04:56:16;;;;;;;5.10;2.85;;;13.80;99.90;;;;;;5092010;28;20530;-69
2022/07/10 04:58:42;;;;;;;10.45;2.97;;;13.90;99.90;;;;;;5093047;28;20201;-69
2022/07/10 05:01:08;;;;;;;3.88;2.60;;;13.90;99.90;;;;;;5093650;28;20176;-69
2022/07/10 05:03:34;;;;;;;6.95;2.55;;;13.90;99.90;;;;;;5093078;28;20181;-68
2022/07/10 05:05:59;;;;;;;6.60;3.17;;;13.90;99.90;;;;;;5093828;28;20201;-68
2022/07/10 05:08:25;;;;;;;12.25;3.65;;;13.90;99.90;;;;;;5096579;28;20225;-68
2022/07/10 05:10:51;;;;;;;6.97;3.10;;;13.90;99.90;;;;;;5096842;28;20185;-68
2022/07/10 05:13:17;;;;;;;6.88;2.70;;;13.90;99.90;;;;;;5096873;28;20239;-68
2022/07/10 05:15:44;;;;;;;5.57;2.90;;;13.90;99.90;;;;;;5096736;28;20252;-68
2022/07/10 05:18:10;;;;;;;4.00;3.15;;;13.90;99.90;;;;;;5096799;28;20659;-69
2022/07/10 05:20:37;;;;;;;9.05;2.65;;;13.90;99.90;;;;;;5096599;28;20212;-68
2022/07/10 05:23:03;;;;;;;10.40;3.22;;;13.90;99.90;;;;;;5096689;28;20192;-68
2022/07/10 05:25:30;;;;;;;9.73;2.85;;;14.00;99.90;;;;;;5096573;28;20251;-69
2022/07/10 05:27:56;;;;;;;6.45;3.08;;;14.10;99.90;;;;;;5096738;28;20165;-69
2022/07/10 05:30:22;;;;;;;6.90;2.80;;;14.10;99.90;;;;;;5096799;28;20201;-69
2022/07/10 05:32:48;;;;;;;8.23;2.80;;;14.10;99.90;;;;;;5095189;28;20176;-69
2022/07/10 05:35:15;;;;;;;4.82;2.72;;;14.10;99.90;;;;;;5096315;28;20177;-68
2022/07/10 05:37:41;;;;;;;5.35;2.85;;;14.20;99.90;;;;;;5096169;28;20175;-68
2022/07/10 05:40:07;;;;;;;7.60;3.55;;;14.20;99.90;;;;;;5094917;28;20231;-68
2022/07/10 05:42:34;;;;;;;7.20;2.80;;;14.20;99.90;;;;;;5096267;28;20180;-68
2022/07/10 05:44:59;;;;;;;5.22;2.72;;;14.20;99.90;;;;;;5096124;28;20169;-69
2022/07/10 05:47:25;;;;;;;13.23;3.13;;;14.30;99.90;;;;;;5096349;28;20212;-70
2022/07/10 05:49:51;;;;;;;11.57;2.92;;;14.30;99.90;;;;;;5096054;28;20192;-68
2022/07/10 05:52:17;;;;;;;11.32;4.65;;;14.30;99.90;;;;;;5096488;28;20180;-69
2022/07/10 05:54:42;;;;;;;6.40;2.72;;;14.30;99.90;;;;;;5095953;28;20173;-69
2022/07/10 05:57:08;;;;;;;5.53;2.67;;;14.30;99.90;;;;;;5095981;28;20173;-69
2022/07/10 05:59:34;;;;;;;6.55;2.90;;;14.30;99.90;;;;;;5095916;28;20197;-69
2022/07/10 06:02:01;;;;;;;7.47;3.25;;;14.40;99.90;;;;;;5094790;28;20790;-69
2022/07/10 06:04:27;;;;;;;15.38;3.20;;;14.50;99.90;;;;;;5095758;28;20181;-68
2022/07/10 06:06:53;;;;;;;9.20;3.20;;;14.70;99.90;;;;;;5095649;28;20314;-68
2022/07/10 06:09:19;;;;;;;6.72;2.92;;;14.70;99.90;;;;;;5095413;28;20193;-68
2022/07/10 06:11:46;;;;;;;10.55;3.60;;;14.70;99.90;;;;;;5096022;28;20174;-68
2022/07/10 06:14:14;;;;;;;7.13;2.90;;;14.70;99.90;;;;;;5096199;28;20234;-69
2022/07/10 06:16:40;;;;;;;7.03;2.60;;;14.70;99.90;;;;;;5095986;28;20197;-68
2022/07/10 06:19:06;;;;;;;7.85;2.53;;;14.80;99.90;;;;;;5095373;28;20621;-68
2022/07/10 06:21:32;;;;;;;4.82;2.80;;;14.80;99.90;;;;;;5094315;28;20215;-69
2022/07/10 06:23:58;;;;;;;12.50;3.63;;;14.80;99.90;;;;;;5095251;28;20209;-68
2022/07/10 06:26:24;;;;;;;7.65;2.72;;;14.70;99.90;;;;;;5094114;28;20250;-69
2022/07/10 06:28:50;;;;;;;6.97;2.90;;;14.70;99.90;;;;;;5094012;28;20192;-68
2022/07/10 06:31:16;;;;;;;8.77;2.88;;;14.70;99.90;;;;;;5095390;28;20173;-68
2022/07/10 06:33:42;;;;;;;7.50;3.05;;;14.70;99.90;;;;;;5095312;28;20173;-68
2022/07/10 06:36:08;;;;;;;6.72;2.58;;;14.70;99.90;;;;;;5093920;28;20205;-68
2022/07/10 06:38:34;;;;;;;7.95;3.03;;;14.70;99.90;;;;;;5095014;28;20272;-68
2022/07/10 06:40:59;;;;;;;8.23;2.60;;;14.70;99.90;;;;;;5093836;28;20173;-68
2022/07/10 06:43:26;;;;;;;3.13;2.42;;;14.80;99.90;;;;;;5095270;28;20257;-69
2022/07/10 06:45:52;;;;;;;5.78;2.80;;;14.80;99.90;;;;;;5095283;28;20200;-69
2022/07/10 06:48:18;;;;;;;10.15;3.20;;;14.90;99.90;;;;;;5095134;28;20169;-69
2022/07/10 06:50:44;;;;;;;10.07;2.65;;;14.80;99.90;;;;;;5095929;28;20187;-68
2022/07/10 06:53:10;;;;;;;10.32;2.60;;;14.90;99.90;;;;;;5093996;28;20686;-69
2022/07/10 06:55:38;;;;;;;6.22;2.40;;;14.90;99.90;;;;;;5095473;28;20208;-69
2022/07/10 06:58:03;;;;;;;6.50;2.40;;;15.00;99.90;;;;;;5095469;28;20165;-68
2022/07/10 07:00:29;;;;;;;6.78;2.58;;;15.10;99.90;;;;;;5094493;28;20258;-68
2022/07/10 07:02:55;;;;;;;5.03;2.42;;;15.20;99.90;;;;;;5095376;28;20219;-68
2022/07/10 07:05:21;;;;;;;6.68;2.83;;;15.30;99.90;;;;;;5095084;28;20173;-69
2022/07/10 07:07:47;;;;;;;5.03;2.35;;;15.40;99.90;;;;;;5095554;28;20174;-68
2022/07/10 07:10:13;;;;;;;7.10;2.53;;;15.50;99.90;;;;;;5095631;28;20188;-66
2022/07/10 07:12:39;;;;;;;7.80;2.28;;;15.60;99.90;;;;;;5093243;28;20538;-66
2022/07/10 07:15:06;;;;;;;4.85;2.33;;;15.70;99.90;;;;;;5095221;28;20173;-66
2022/07/10 07:17:35;;;;;;;3.78;2.10;;;15.80;99.90;;;;;;5095058;28;20231;-68
2022/07/10 07:25:31;;;;;;;8.48;2.75;;;15.80;99.90;;;;;;5094676;28;20217;-67
2022/07/10 07:27:57;;;;;;;4.38;2.30;;;15.70;99.90;;;;;;5094183;28;20169;-67
2022/07/10 07:30:23;;;;;;;5.25;2.30;;;15.50;99.90;;;;;;5094010;28;20239;-67
2022/07/10 07:32:49;;;;;;;5.30;2.15;;;15.40;99.90;;;;;;5094162;28;20168;-67
2022/07/10 07:35:15;;;;;;;4.35;2.58;;;15.30;99.90;;;;;;5093984;28;20165;-67
2022/07/10 07:37:47;;;;;;;7.53;2.30;;;15.20;99.90;;;;;;5094009;28;20177;-68
2022/07/10 07:40:23;;;;;;;4.00;2.25;;;15.10;99.90;;;;;;5094180;28;20553;-67
2022/07/10 07:42:50;;;;;;;8.70;2.25;;;15.00;99.90;;;;;;5094189;28;20232;-67
2022/07/10 07:45:17;;;;;;;5.15;2.65;;;14.90;99.90;;;;;;5092909;28;20552;-67
2022/07/10 07:47:54;;;;;;;8.30;2.40;;;15.00;99.90;;;;;;5094309;28;20551;-67
2022/07/10 07:50:23;;;;;;;5.38;2.55;;;14.90;99.90;;;;;;5092435;28;20201;-67
2022/07/10 07:52:49;;;;;;;7.20;2.55;;;15.00;99.90;;;;;;5093449;28;20177;-68
2022/07/10 07:55:17;;;;;;;10.60;2.80;;;15.00;99.90;;;;;;5094092;28;20188;-67
2022/07/10 07:57:43;;;;;;;7.47;2.50;;;15.00;99.90;;;;;;5092493;28;20181;-67
2022/07/10 08:00:10;;;;;;;7.93;2.80;;;15.10;99.90;;;;;;5093629;28;20193;-67
2022/07/10 08:02:36;;;;;;;7.45;2.53;;;15.20;99.90;;;;;;5093587;28;20645;-67
2022/07/10 08:05:04;;;;;;;7.10;2.60;;;15.20;99.90;;;;;;5094207;28;20238;-67
2022/07/10 08:07:57;;;;;;;6.47;2.38;;;15.20;99.90;;;;;;5093435;28;20232;-67
2022/07/10 08:10:28;;;;;;;9.25;2.50;;;15.20;99.90;;;;;;5092184;28;20203;-67
2022/07/10 08:12:54;;;;;;;8.80;2.92;;;15.20;99.90;;;;;;5093580;28;20180;-67
2022/07/10 08:15:24;;;;;;;7.10;2.67;;;15.10;99.90;;;;;;5093456;28;20571;-67
2022/07/10 08:17:52;;;;;;;9.75;2.65;;;15.00;99.90;;;;;;5093771;28;20192;-67
2022/07/10 08:20:18;;;;;;;9.55;2.90;;;14.90;99.90;;;;;;5093492;28;20275;-67
2022/07/10 08:22:44;;;;;;;8.35;2.72;;;14.80;99.90;;;;;;5093953;28;20596;-67
2022/07/10 08:25:10;;;;;;;5.78;2.55;;;14.80;99.90;;;;;;5091886;28;20601;-67
2022/07/10 08:27:37;;;;;;;5.43;2.15;;;14.80;99.90;;;;;;5093155;28;20240;-67
2022/07/10 08:30:03;;;;;;;5.75;2.70;;;14.70;99.90;;;;;;5093247;28;20217;-67
2022/07/10 08:32:29;;;;;;;9.27;2.50;;;14.70;99.90;;;;;;5093330;28;20165;-67
2022/07/10 08:34:55;;;;;;;4.78;2.40;;;14.70;99.90;;;;;;5093320;28;20541;-67
2022/07/10 08:37:21;;;;;;;6.03;2.30;;;14.70;99.90;;;;;;5091957;28;20224;-67
2022/07/10 08:39:47;;;;;;;8.32;2.40;;;14.70;99.90;;;;;;5092062;28;20192;-67
2022/07/10 08:42:15;;;;;;;5.18;2.38;;;14.70;99.90;;;;;;5097673;28;20208;-67
2022/07/10 08:44:40;;;;;;;4.32;2.70;;;14.60;99.90;;;;;;5097365;28;20160;-67
2022/07/10 08:47:06;;;;;;;4.93;2.70;;;14.60;99.90;;;;;;5097472;28;20205;-67
2022/07/10 08:49:35;;;;;;;9.70;2.70;;;14.60;99.90;;;;;;5097088;28;20224;-67
2022/07/10 08:52:05;;;;;;;6.93;2.55;;;14.50;99.90;;;;;;5097118;28;20575;-67
2022/07/10 08:54:32;;;;;;;8.80;3.10;;;14.40;99.90;;;;;;5096896;28;20190;-67
2022/07/10 08:56:59;;;;;;;13.73;3.05;;;14.50;99.90;;;;;;5097393;28;20173;-67
2022/07/10 08:59:26;;;;;;;7.82;2.70;;;14.50;99.90;;;;;;5097061;28;20201;-67
2022/07/10 09:01:53;;;;;;;3.53;2.28;;;14.50;99.90;;;;;;5097270;28;20181;-67
2022/07/10 09:04:21;;;;;;;7.28;2.75;;;14.50;99.90;;;;;;5096926;28;20169;-67
2022/07/10 09:06:47;;;;;;;3.25;2.20;;;14.60;99.90;;;;;;5096773;28;20189;-66
2022/07/10 09:09:13;;;;;;;5.65;2.30;;;14.60;99.90;;;;;;5095675;28;20193;-66
2022/07/10 09:11:42;;;;;;;3.50;2.47;;;14.70;99.90;;;;;;5095605;28;20177;-66
2022/07/10 09:14:14;;;;;;;2.67;2.40;;;14.70;99.90;;;;;;5097002;28;20215;-69
2022/07/10 09:16:42;;;;;;;6.20;2.40;;;14.80;99.90;;;;;;5096628;28;20173;-68
2022/07/10 09:19:22;;;;;;;6.10;2.60;;;14.90;99.90;;;;;;5096852;28;20212;-69
2022/07/10 09:21:50;;;;;;;7.25;2.83;;;15.00;99.90;;;;;;5096315;28;20180;-69
2022/07/10 09:24:19;;;;;;;7.60;2.60;;;14.90;99.90;;;;;;5097399;28;20195;-70
2022/07/10 09:26:54;;;;;;;7.82;2.38;;;15.00;99.90;;;;;;5097065;28;20204;-68
2022/07/10 09:29:20;;;;;;;8.55;2.70;;;15.00;99.90;;;;;;5096056;28;20287;-68
2022/07/10 09:31:52;;;;;;;5.03;2.90;;;15.00;99.90;;;;;;5096641;28;20220;-70
2022/07/10 09:34:35;;;;;;;5.10;2.55;;;15.10;99.90;;;;;;5097666;28;20173;-69
2022/07/10 09:37:24;;;;;;;8.48;2.63;;;15.10;99.90;;;;;;5097457;28;20246;-69
2022/07/10 09:40:04;;;;;;;5.20;2.67;;;15.00;99.90;;;;;;5094759;28;20196;-70
2022/07/10 09:42:42;;;;;;;7.72;2.95;;;14.90;99.90;;;;;;5095133;28;20771;-70
2022/07/10 09:45:12;;;;;;;7.82;3.05;;;14.90;99.90;;;;;;5096332;28;20184;-69
2022/07/10 09:47:54;;;;;;;12.95;3.72;;;14.70;99.90;;;;;;5095290;28;20211;-70
2022/07/10 09:50:36;;;;;;;7.90;3.28;;;14.70;99.90;;;;;;5096875;28;20189;-69
2022/07/10 09:53:12;;;;;;;9.13;3.45;;;14.90;99.90;;;;;;5097064;28;20599;-70
2022/07/10 09:55:38;;;;;;;10.07;3.53;;;15.00;99.90;;;;;;5096863;28;20168;-70
2022/07/10 09:58:08;;;;;;;5.43;3.38;;;15.10;99.90;;;;;;5096313;28;20170;-70
2022/07/10 10:00:45;;;;;;;6.80;3.30;;;15.20;99.90;;;;;;5094892;28;20195;-70
2022/07/10 10:03:14;;;;;;;6.70;3.42;;;15.30;99.90;;;;;;5094835;28;20161;-70
2022/07/10 10:06:00;;;;;;;6.82;3.38;;;15.20;99.90;;;;;;5096117;28;20161;-69
2022/07/10 10:08:44;;;;;;;7.10;3.28;;;15.30;99.90;;;;;;5094457;28;20207;-70
2022/07/10 10:11:15;;;;;;;5.72;3.03;;;15.30;99.90;;;;;;5094561;28;20172;-70
2022/07/10 10:13:43;;;;;;;3.85;3.03;;;15.40;99.90;;;;;;5096188;28;20149;-70
2022/07/10 10:16:09;;;;;;;4.72;2.88;;;15.50;99.90;;;;;;5094537;28;20264;-70
2022/07/10 10:20:36;;;;;;;5.55;2.85;;;15.50;99.90;;;;;;5094147;28;20212;-70
2022/07/10 10:21:23;;;;;;;6.20;2.95;;;15.50;99.90;;;;;;5095546;28;20201;-70
2022/07/10 10:23:50;;;;;;;4.93;3.10;;;15.50;99.90;;;;;;5095808;28;20262;-70
2022/07/10 10:26:17;;;;;;;6.28;3.45;;;15.40;99.90;;;;;;5095450;28;20609;-70
2022/07/10 10:28:43;;;;;;;5.45;3.70;;;15.30;99.90;;;;;;5095347;28;20304;-70
2022/07/10 10:31:10;;;;;;;5.47;3.38;;;15.20;99.90;;;;;;5095727;28;20642;-70
2022/07/10 10:33:40;;;;;;;5.57;3.20;;;15.20;99.90;;;;;;5095317;28;20191;-70
2022/07/10 10:36:06;;;;;;;7.38;3.38;;;15.10;99.90;;;;;;5095271;28;20597;-70
2022/07/10 10:38:55;;;;;;;3.42;3.13;;;15.20;99.90;;;;;;5093669;28;20682;-70
2022/07/10 10:41:26;;;;;;;4.32;3.00;;;15.30;99.90;;;;;;5093975;28;20180;-70
2022/07/10 10:44:07;;;;;;;6.47;2.90;;;15.40;99.90;;;;;;5095406;28;20299;-70
2022/07/10 10:46:53;;;;;;;4.53;3.25;;;15.40;99.90;;;;;;5094144;28;20200;-70
2022/07/10 10:49:21;;;;;;;5.03;2.80;;;15.30;99.90;;;;;;5093775;28;20197;-70
2022/07/10 10:52:03;;;;;;;5.88;2.92;;;15.20;99.90;;;;;;5094006;28;20177;-70
2022/07/10 10:54:30;;;;;;;4.82;3.30;;;15.20;99.90;;;;;;5093419;28;20314;-70
2022/07/10 10:57:16;;;;;;;5.78;3.22;;;15.20;99.90;;;;;;5093547;28;20181;-70
2022/07/10 10:59:48;;;;;;;4.90;3.30;;;15.20;99.90;;;;;;5093495;28;20620;-70
2022/07/10 11:02:36;;;;;;;6.43;4.20;;;15.30;99.90;;;;;;5092981;28;20220;-70
2022/07/10 11:05:12;;;;;;;5.03;3.50;;;15.40;99.90;;;;;;5094834;28;20176;-70
2022/07/10 11:07:55;;;;;;;3.70;3.30;;;15.40;99.90;;;;;;5094566;28;20220;-71
2022/07/10 11:10:40;;;;;;;4.65;3.75;;;15.50;99.90;;;;;;5092987;28;20193;-71
2022/07/10 11:13:09;;;;;;;5.63;4.10;;;15.60;99.90;;;;;;5094883;28;20522;-71
2022/07/10 11:15:43;;;;;;;4.85;3.72;;;15.50;99.90;;;;;;5094669;28;20172;-71
2022/07/10 11:18:14;;;;;;;6.57;3.90;;;15.40;99.90;;;;;;5094245;28;20188;-70
2022/07/10 11:20:44;;;;;;;4.45;3.22;;;15.40;99.90;;;;;;5094187;28;20249;-71
2022/07/10 11:23:44;;;;;;;7.00;3.97;;;15.50;99.90;;;;;;5094755;28;20575;-71
2022/07/10 11:26:36;;;;;;;3.95;3.58;;;15.60;99.90;;;;;;5092924;28;20202;-71
2022/07/10 11:29:07;;;;;;;6.13;4.18;;;15.70;99.90;;;;;;5088714;28;20292;-71
2022/07/10 11:31:44;;;;;;;5.45;4.32;;;15.60;99.90;;;;;;5094407;28;20146;-71
2022/07/10 11:34:10;;;;;;;5.50;4.30;;;15.50;99.90;;;;;;5093127;28;20172;-71
2022/07/10 11:36:39;;;;;;;5.50;4.80;;;15.40;99.90;;;;;;5093002;28;20181;-70
2022/07/10 11:39:07;;;;;;;6.70;4.78;;;15.30;99.90;;;;;;5094214;28;20216;-71
2022/07/10 11:41:34;;;;;;;7.85;4.68;;;15.30;99.90;;;;;;5092954;28;20176;-71
2022/07/10 11:44:02;;;;;;;8.20;5.50;;;15.30;99.90;;;;;;5092787;28;20207;-71
2022/07/10 11:46:34;;;;;;;6.50;4.85;;;15.30;99.90;;;;;;5092853;28;20205;-71
2022/07/10 11:49:05;;;;;;;6.50;4.93;;;15.40;99.90;;;;;;5092671;28;20227;-71
2022/07/10 11:51:37;;;;;;;5.32;4.22;;;15.50;99.90;;;;;;5094369;28;20543;-71
2022/07/10 11:54:10;;;;;;;7.60;4.53;;;15.60;99.90;;;;;;5093795;28;20256;-71
2022/07/10 11:56:42;;;;;;;6.10;5.30;;;15.70;99.90;;;;;;5093970;28;20203;-71
2022/07/10 11:59:09;;;;;;;7.50;4.60;;;15.70;99.90;;;;;;5094246;28;20200;-71
2022/07/10 12:01:46;;;;;;;5.65;4.50;;;15.70;99.90;;;;;;5093718;28;20180;-71
2022/07/10 12:04:14;;;;;;;8.05;4.88;;;15.60;99.90;;;;;;5093996;28;20169;-70
2022/07/10 12:06:44;;;;;;;8.15;5.90;;;15.60;99.90;;;;;;5092304;28;20228;-71
2022/07/10 12:09:14;;;;;;;9.10;6.80;;;15.60;99.90;;;;;;5093385;28;20184;-71
2022/07/10 12:12:02;;;;;;;9.27;7.18;;;15.50;99.90;;;;;;5093526;28;20172;-71
2022/07/10 12:14:28;;;;;;;7.85;7.00;;;15.40;99.90;;;;;;5092065;28;20172;-71
2022/07/10 12:16:56;;;;;;;8.15;7.20;;;15.50;99.90;;;;;;5092114;28;20204;-72
2022/07/10 12:19:31;;;;;;;12.63;8.20;;;15.50;99.90;;;;;;5092121;28;20209;-71
2022/07/10 12:22:01;;;;;;;10.95;8.65;;;15.60;99.90;;;;;;5091981;28;20271;-71
2022/07/10 12:24:42;;;;;;;10.88;9.30;;;15.80;99.90;;;;;;5093505;28;20192;-71
2022/07/10 12:27:37;;;;;;;9.38;8.40;;;15.80;99.90;;;;;;5092187;28;20200;-70
2022/07/10 12:30:19;;;;;;;;;;;;;;;;;;;;;
2022/07/10 12:32:46;;;;;;;10.38;8.48;;;15.90;99.90;;;;;;5093180;28;20181;-71
2022/07/10 12:35:15;;;;;;;11.25;8.10;;;15.80;99.90;;;;;;5093596;28;20279;-71
2022/07/10 12:37:50;;;;;;;8.50;7.40;;;15.80;99.90;;;;;;5092141;28;20180;-71
2022/07/10 12:40:32;;;;;;;8.75;7.68;;;15.80;99.90;;;;;;5094145;28;20270;-68
2022/07/10 12:43:03;;;;;;;11.13;9.80;;;15.70;99.90;;;;;;5092160;28;20518;-68
2022/07/10 12:45:29;;;;;;;12.25;10.48;;;15.70;99.90;;;;;;5092038;28;20177;-67
2022/07/10 12:47:55;;;;;;;13.32;10.25;;;15.60;99.90;;;;;;5093946;28;20196;-70
2022/07/10 12:50:21;;;;;;;12.63;10.60;;;15.60;99.90;;;;;;5093540;28;20263;-71
2022/07/10 12:52:47;;;;;;;15.80;11.88;;;15.60;99.90;;;;;;5091686;28;20173;-71
2022/07/10 12:55:21;;;;;;;13.55;11.57;;;15.60;99.90;;;;;;5092961;28;20687;-71
2022/07/10 12:57:47;;;;;;;15.18;12.00;;;15.60;99.90;;;;;;5091492;28;20208;-71
2022/07/10 13:00:14;;;;;;;16.30;11.85;;;15.70;99.90;;;;;;5091302;28;20232;-71
2022/07/10 13:02:41;;;;;;;12.35;11.05;;;15.70;99.90;;;;;;5092642;28;20184;-71